sensor_id;sensor_type;location;lat;lon;timestamp;P1;durP1;ratioP1;P2;durP2;ratioP2
84172;SDS011;74302;40.122;18.310;2024-03-06T00:00:32;7.60;;;5.25;;
84172;SDS011;74302;40.122;18.310;2024-03-06T00:02:16;9.35;;;5.03;;
84172;SDS011;74302;40.122;18.310;2024-03-06T00:03:59;12.25;;;5.72;;
84172;SDS011;74302;40.122;18.310;2024-03-06T00:05:43;12.23;;;6.75;;
84172;SDS011;74302;40.122;18.310;2024-03-06T00:07:28;8.02;;;5.35;;
84172;SDS011;74302;40.122;18.310;2024-03-06T00:09:14;7.03;;;5.18;;
84172;SDS011;74302;40.122;18.310;2024-03-06T00:10:58;7.10;;;5.03;;
84172;SDS011;74302;40.122;18.310;2024-03-06T00:12:42;8.98;;;5.32;;
84172;SDS011;74302;40.122;18.310;2024-03-06T00:14:25;10.65;;;6.40;;
84172;SDS011;74302;40.122;18.310;2024-03-06T00:16:10;7.45;;;4.53;;
84172;SDS011;74302;40.122;18.310;2024-03-06T00:17:53;9.23;;;5.15;;
84172;SDS011;74302;40.122;18.310;2024-03-06T00:19:37;12.02;;;5.75;;
84172;SDS011;74302;40.122;18.310;2024-03-06T00:21:21;9.57;;;5.63;;
84172;SDS011;74302;40.122;18.310;2024-03-06T00:23:04;13.25;;;5.25;;
84172;SDS011;74302;40.122;18.310;2024-03-06T00:24:48;7.38;;;4.70;;
84172;SDS011;74302;40.122;18.310;2024-03-06T00:26:34;9.77;;;5.10;;
84172;SDS011;74302;40.122;18.310;2024-03-06T00:28:18;9.40;;;4.68;;
84172;SDS011;74302;40.122;18.310;2024-03-06T00:30:02;12.30;;;6.25;;
84172;SDS011;74302;40.122;18.310;2024-03-06T00:31:46;7.25;;;4.60;;
84172;SDS011;74302;40.122;18.310;2024-03-06T00:33:30;7.20;;;4.35;;
84172;SDS011;74302;40.122;18.310;2024-03-06T00:35:14;12.75;;;4.28;;
84172;SDS011;74302;40.122;18.310;2024-03-06T00:36:58;7.32;;;4.80;;
84172;SDS011;74302;40.122;18.310;2024-03-06T00:38:41;11.10;;;5.88;;
84172;SDS011;74302;40.122;18.310;2024-03-06T00:40:26;8.25;;;6.47;;
84172;SDS011;74302;40.122;18.310;2024-03-06T00:42:13;9.00;;;4.95;;
84172;SDS011;74302;40.122;18.310;2024-03-06T00:43:57;9.00;;;5.95;;
84172;SDS011;74302;40.122;18.310;2024-03-06T00:45:41;7.63;;;4.55;;
84172;SDS011;74302;40.122;18.310;2024-03-06T00:49:09;6.57;;;5.03;;
84172;SDS011;74302;40.122;18.310;2024-03-06T00:50:53;9.23;;;4.75;;
84172;SDS011;74302;40.122;18.310;2024-03-06T00:52:36;11.27;;;5.45;;
84172;SDS011;74302;40.122;18.310;2024-03-06T00:56:04;18.50;;;4.85;;
84172;SDS011;74302;40.122;18.310;2024-03-06T00:57:50;5.57;;;4.90;;
84172;SDS011;74302;40.122;18.310;2024-03-06T00:59:34;10.05;;;5.60;;
84172;SDS011;74302;40.122;18.310;2024-03-06T01:01:17;6.35;;;3.72;;
84172;SDS011;74302;40.122;18.310;2024-03-06T01:03:01;5.90;;;3.17;;
84172;SDS011;74302;40.122;18.310;2024-03-06T01:04:44;5.72;;;3.90;;
84172;SDS011;74302;40.122;18.310;2024-03-06T01:06:29;8.90;;;5.68;;
84172;SDS011;74302;40.122;18.310;2024-03-06T01:08:13;6.68;;;4.35;;
84172;SDS011;74302;40.122;18.310;2024-03-06T01:10:00;9.27;;;4.82;;
84172;SDS011;74302;40.122;18.310;2024-03-06T01:11:44;20.13;;;6.43;;
84172;SDS011;74302;40.122;18.310;2024-03-06T01:13:31;8.57;;;4.75;;
84172;SDS011;74302;40.122;18.310;2024-03-06T01:15:14;6.93;;;3.78;;
84172;SDS011;74302;40.122;18.310;2024-03-06T01:16:58;10.20;;;4.30;;
84172;SDS011;74302;40.122;18.310;2024-03-06T01:18:43;7.38;;;4.75;;
84172;SDS011;74302;40.122;18.310;2024-03-06T01:22:10;7.07;;;4.13;;
84172;SDS011;74302;40.122;18.310;2024-03-06T01:23:55;7.95;;;4.50;;
84172;SDS011;74302;40.122;18.310;2024-03-06T01:25:39;7.88;;;4.75;;
84172;SDS011;74302;40.122;18.310;2024-03-06T01:27:23;8.70;;;4.60;;
84172;SDS011;74302;40.122;18.310;2024-03-06T01:29:08;6.80;;;3.83;;
84172;SDS011;74302;40.122;18.310;2024-03-06T01:30:52;8.15;;;5.43;;
84172;SDS011;74302;40.122;18.310;2024-03-06T01:32:36;8.27;;;4.97;;
84172;SDS011;74302;40.122;18.310;2024-03-06T01:34:20;7.00;;;4.43;;
84172;SDS011;74302;40.122;18.310;2024-03-06T01:36:04;8.57;;;5.45;;
84172;SDS011;74302;40.122;18.310;2024-03-06T01:37:49;10.98;;;5.57;;
84172;SDS011;74302;40.122;18.310;2024-03-06T01:39:32;16.83;;;6.60;;
84172;SDS011;74302;40.122;18.310;2024-03-06T01:41:18;7.90;;;5.25;;
84172;SDS011;74302;40.122;18.310;2024-03-06T01:43:01;10.05;;;5.55;;
84172;SDS011;74302;40.122;18.310;2024-03-06T01:44:46;8.18;;;4.20;;
84172;SDS011;74302;40.122;18.310;2024-03-06T01:46:30;9.82;;;5.30;;
84172;SDS011;74302;40.122;18.310;2024-03-06T01:48:14;7.88;;;4.03;;
84172;SDS011;74302;40.122;18.310;2024-03-06T01:49:58;5.88;;;4.15;;
84172;SDS011;74302;40.122;18.310;2024-03-06T01:51:45;8.57;;;5.18;;
84172;SDS011;74302;40.122;18.310;2024-03-06T01:53:32;9.20;;;5.75;;
84172;SDS011;74302;40.122;18.310;2024-03-06T01:55:18;10.40;;;4.43;;
84172;SDS011;74302;40.122;18.310;2024-03-06T01:57:03;7.20;;;3.80;;
84172;SDS011;74302;40.122;18.310;2024-03-06T01:58:49;8.50;;;4.78;;
84172;SDS011;74302;40.122;18.310;2024-03-06T02:00:36;9.68;;;4.28;;
84172;SDS011;74302;40.122;18.310;2024-03-06T02:02:19;8.20;;;4.07;;
84172;SDS011;74302;40.122;18.310;2024-03-06T02:04:04;10.05;;;5.03;;
84172;SDS011;74302;40.122;18.310;2024-03-06T02:05:49;8.73;;;4.43;;
84172;SDS011;74302;40.122;18.310;2024-03-06T02:07:35;8.95;;;5.05;;
84172;SDS011;74302;40.122;18.310;2024-03-06T02:09:21;13.80;;;4.00;;
84172;SDS011;74302;40.122;18.310;2024-03-06T02:11:06;6.90;;;4.28;;
84172;SDS011;74302;40.122;18.310;2024-03-06T02:12:51;5.13;;;3.65;;
84172;SDS011;74302;40.122;18.310;2024-03-06T02:14:35;11.52;;;5.50;;
84172;SDS011;74302;40.122;18.310;2024-03-06T02:16:21;12.25;;;6.20;;
84172;SDS011;74302;40.122;18.310;2024-03-06T02:18:05;7.93;;;4.75;;
84172;SDS011;74302;40.122;18.310;2024-03-06T02:19:50;9.55;;;6.30;;
84172;SDS011;74302;40.122;18.310;2024-03-06T02:21:35;8.05;;;5.30;;
84172;SDS011;74302;40.122;18.310;2024-03-06T02:23:19;7.82;;;4.63;;
84172;SDS011;74302;40.122;18.310;2024-03-06T02:25:04;13.02;;;5.35;;
84172;SDS011;74302;40.122;18.310;2024-03-06T02:26:49;9.32;;;5.47;;
84172;SDS011;74302;40.122;18.310;2024-03-06T02:28:33;11.57;;;4.82;;
84172;SDS011;74302;40.122;18.310;2024-03-06T02:30:19;6.70;;;4.65;;
84172;SDS011;74302;40.122;18.310;2024-03-06T02:32:03;7.47;;;4.05;;
84172;SDS011;74302;40.122;18.310;2024-03-06T02:35:30;6.65;;;3.97;;
84172;SDS011;74302;40.122;18.310;2024-03-06T02:38:59;7.72;;;5.07;;
84172;SDS011;74302;40.122;18.310;2024-03-06T02:40:44;8.98;;;4.82;;
84172;SDS011;74302;40.122;18.310;2024-03-06T02:42:28;8.70;;;4.80;;
84172;SDS011;74302;40.122;18.310;2024-03-06T02:44:11;14.88;;;5.50;;
84172;SDS011;74302;40.122;18.310;2024-03-06T02:45:55;8.75;;;4.65;;
84172;SDS011;74302;40.122;18.310;2024-03-06T02:47:38;6.25;;;3.88;;
84172;SDS011;74302;40.122;18.310;2024-03-06T02:49:23;21.60;;;5.22;;
84172;SDS011;74302;40.122;18.310;2024-03-06T02:51:06;7.40;;;5.00;;
84172;SDS011;74302;40.122;18.310;2024-03-06T02:52:51;9.25;;;5.50;;
84172;SDS011;74302;40.122;18.310;2024-03-06T02:54:36;9.82;;;4.50;;
84172;SDS011;74302;40.122;18.310;2024-03-06T02:56:19;7.00;;;4.15;;
84172;SDS011;74302;40.122;18.310;2024-03-06T02:59:46;9.90;;;3.72;;
84172;SDS011;74302;40.122;18.310;2024-03-06T03:01:30;9.25;;;4.68;;
84172;SDS011;74302;40.122;18.310;2024-03-06T03:03:13;7.50;;;5.43;;
84172;SDS011;74302;40.122;18.310;2024-03-06T03:04:58;7.13;;;3.85;;
84172;SDS011;74302;40.122;18.310;2024-03-06T03:06:42;6.35;;;4.22;;
84172;SDS011;74302;40.122;18.310;2024-03-06T03:10:10;6.55;;;3.92;;
84172;SDS011;74302;40.122;18.310;2024-03-06T03:11:54;8.48;;;4.75;;
84172;SDS011;74302;40.122;18.310;2024-03-06T03:13:39;8.75;;;4.22;;
84172;SDS011;74302;40.122;18.310;2024-03-06T03:15:22;7.43;;;3.42;;
84172;SDS011;74302;40.122;18.310;2024-03-06T03:18:51;6.47;;;4.78;;
84172;SDS011;74302;40.122;18.310;2024-03-06T03:20:34;6.38;;;3.65;;
84172;SDS011;74302;40.122;18.310;2024-03-06T03:24:03;8.73;;;5.35;;
84172;SDS011;74302;40.122;18.310;2024-03-06T03:25:48;5.45;;;3.22;;
84172;SDS011;74302;40.122;18.310;2024-03-06T03:27:31;8.30;;;5.78;;
84172;SDS011;74302;40.122;18.310;2024-03-06T03:29:15;8.50;;;3.75;;
84172;SDS011;74302;40.122;18.310;2024-03-06T03:30:58;8.15;;;3.70;;
84172;SDS011;74302;40.122;18.310;2024-03-06T03:32:43;8.25;;;4.78;;
84172;SDS011;74302;40.122;18.310;2024-03-06T03:34:27;6.22;;;4.88;;
84172;SDS011;74302;40.122;18.310;2024-03-06T03:36:12;7.47;;;4.40;;
84172;SDS011;74302;40.122;18.310;2024-03-06T03:37:56;8.52;;;6.53;;
84172;SDS011;74302;40.122;18.310;2024-03-06T03:39:42;9.05;;;4.65;;
84172;SDS011;74302;40.122;18.310;2024-03-06T03:41:27;8.18;;;4.88;;
84172;SDS011;74302;40.122;18.310;2024-03-06T03:43:11;8.95;;;4.95;;
84172;SDS011;74302;40.122;18.310;2024-03-06T03:44:54;10.48;;;5.10;;
84172;SDS011;74302;40.122;18.310;2024-03-06T03:46:38;10.30;;;6.55;;
84172;SDS011;74302;40.122;18.310;2024-03-06T03:48:22;10.68;;;5.03;;
84172;SDS011;74302;40.122;18.310;2024-03-06T03:50:06;11.27;;;5.00;;
84172;SDS011;74302;40.122;18.310;2024-03-06T03:51:51;8.23;;;5.07;;
84172;SDS011;74302;40.122;18.310;2024-03-06T03:53:35;17.67;;;7.28;;
84172;SDS011;74302;40.122;18.310;2024-03-06T03:55:19;9.55;;;5.72;;
84172;SDS011;74302;40.122;18.310;2024-03-06T03:57:04;18.67;;;7.70;;
84172;SDS011;74302;40.122;18.310;2024-03-06T03:58:49;9.68;;;4.40;;
84172;SDS011;74302;40.122;18.310;2024-03-06T04:00:33;7.90;;;5.60;;
84172;SDS011;74302;40.122;18.310;2024-03-06T04:02:16;7.18;;;3.17;;
84172;SDS011;74302;40.122;18.310;2024-03-06T04:05:44;9.25;;;3.90;;
84172;SDS011;74302;40.122;18.310;2024-03-06T04:07:27;6.75;;;4.53;;
84172;SDS011;74302;40.122;18.310;2024-03-06T04:09:12;9.70;;;5.60;;
84172;SDS011;74302;40.122;18.310;2024-03-06T04:10:58;9.10;;;4.75;;
84172;SDS011;74302;40.122;18.310;2024-03-06T04:12:42;7.38;;;3.92;;
84172;SDS011;74302;40.122;18.310;2024-03-06T04:14:26;7.18;;;4.43;;
84172;SDS011;74302;40.122;18.310;2024-03-06T04:16:09;6.32;;;4.53;;
84172;SDS011;74302;40.122;18.310;2024-03-06T04:17:58;9.55;;;4.13;;
84172;SDS011;74302;40.122;18.310;2024-03-06T04:19:43;10.57;;;5.88;;
84172;SDS011;74302;40.122;18.310;2024-03-06T04:21:27;6.03;;;3.60;;
84172;SDS011;74302;40.122;18.310;2024-03-06T04:24:54;8.38;;;5.65;;
84172;SDS011;74302;40.122;18.310;2024-03-06T04:26:42;8.98;;;5.00;;
84172;SDS011;74302;40.122;18.310;2024-03-06T04:28:26;14.38;;;4.72;;
84172;SDS011;74302;40.122;18.310;2024-03-06T04:30:10;5.72;;;3.88;;
84172;SDS011;74302;40.122;18.310;2024-03-06T04:31:55;11.70;;;5.10;;
84172;SDS011;74302;40.122;18.310;2024-03-06T04:33:40;5.32;;;3.42;;
84172;SDS011;74302;40.122;18.310;2024-03-06T04:35:24;6.85;;;3.78;;
84172;SDS011;74302;40.122;18.310;2024-03-06T04:37:08;6.72;;;4.97;;
84172;SDS011;74302;40.122;18.310;2024-03-06T04:38:52;9.63;;;5.63;;
84172;SDS011;74302;40.122;18.310;2024-03-06T04:40:36;7.88;;;4.20;;
84172;SDS011;74302;40.122;18.310;2024-03-06T04:42:21;5.43;;;3.78;;
84172;SDS011;74302;40.122;18.310;2024-03-06T04:44:05;9.43;;;4.57;;
84172;SDS011;74302;40.122;18.310;2024-03-06T04:45:48;14.63;;;5.07;;
84172;SDS011;74302;40.122;18.310;2024-03-06T04:47:32;4.82;;;3.17;;
84172;SDS011;74302;40.122;18.310;2024-03-06T04:49:15;5.78;;;4.07;;
84172;SDS011;74302;40.122;18.310;2024-03-06T04:50:59;8.82;;;4.47;;
84172;SDS011;74302;40.122;18.310;2024-03-06T04:52:43;9.38;;;5.72;;
84172;SDS011;74302;40.122;18.310;2024-03-06T04:54:27;8.25;;;4.15;;
84172;SDS011;74302;40.122;18.310;2024-03-06T04:56:11;8.95;;;4.25;;
84172;SDS011;74302;40.122;18.310;2024-03-06T04:57:57;9.40;;;4.05;;
84172;SDS011;74302;40.122;18.310;2024-03-06T04:59:40;6.57;;;3.70;;
84172;SDS011;74302;40.122;18.310;2024-03-06T05:01:24;6.85;;;2.88;;
84172;SDS011;74302;40.122;18.310;2024-03-06T05:03:09;7.07;;;4.20;;
84172;SDS011;74302;40.122;18.310;2024-03-06T05:05:10;4.05;;;2.72;;
84172;SDS011;74302;40.122;18.310;2024-03-06T05:07:12;8.07;;;3.85;;
84172;SDS011;74302;40.122;18.310;2024-03-06T05:09:13;11.23;;;4.88;;
84172;SDS011;74302;40.122;18.310;2024-03-06T05:11:15;5.90;;;3.65;;
84172;SDS011;74302;40.122;18.310;2024-03-06T05:13:17;6.13;;;3.80;;
84172;SDS011;74302;40.122;18.310;2024-03-06T05:15:18;6.03;;;3.38;;
84172;SDS011;74302;40.122;18.310;2024-03-06T05:17:19;7.13;;;3.33;;
84172;SDS011;74302;40.122;18.310;2024-03-06T05:19:21;4.85;;;3.13;;
84172;SDS011;74302;40.122;18.310;2024-03-06T05:21:22;5.18;;;3.10;;
84172;SDS011;74302;40.122;18.310;2024-03-06T05:23:23;4.55;;;2.95;;
84172;SDS011;74302;40.122;18.310;2024-03-06T05:25:25;7.53;;;3.88;;
84172;SDS011;74302;40.122;18.310;2024-03-06T05:27:26;5.97;;;4.47;;
84172;SDS011;74302;40.122;18.310;2024-03-06T05:29:30;9.05;;;3.97;;
84172;SDS011;74302;40.122;18.310;2024-03-06T05:31:30;5.93;;;3.90;;
84172;SDS011;74302;40.122;18.310;2024-03-06T05:33:32;4.95;;;2.85;;
84172;SDS011;74302;40.122;18.310;2024-03-06T05:35:33;5.72;;;3.60;;
84172;SDS011;74302;40.122;18.310;2024-03-06T05:37:35;7.30;;;4.30;;
84172;SDS011;74302;40.122;18.310;2024-03-06T05:39:36;6.97;;;3.83;;
84172;SDS011;74302;40.122;18.310;2024-03-06T05:41:38;9.30;;;2.88;;
84172;SDS011;74302;40.122;18.310;2024-03-06T05:43:40;6.03;;;2.75;;
84172;SDS011;74302;40.122;18.310;2024-03-06T05:45:43;8.32;;;4.43;;
84172;SDS011;74302;40.122;18.310;2024-03-06T05:47:44;6.32;;;3.22;;
84172;SDS011;74302;40.122;18.310;2024-03-06T05:49:46;7.07;;;4.20;;
84172;SDS011;74302;40.122;18.310;2024-03-06T05:51:47;6.43;;;3.80;;
84172;SDS011;74302;40.122;18.310;2024-03-06T05:53:49;8.75;;;3.97;;
84172;SDS011;74302;40.122;18.310;2024-03-06T05:55:50;7.43;;;4.95;;
84172;SDS011;74302;40.122;18.310;2024-03-06T05:57:52;8.98;;;4.88;;
84172;SDS011;74302;40.122;18.310;2024-03-06T05:59:52;8.25;;;4.13;;
84172;SDS011;74302;40.122;18.310;2024-03-06T06:01:38;7.18;;;5.00;;
84172;SDS011;74302;40.122;18.310;2024-03-06T06:03:23;7.43;;;4.00;;
84172;SDS011;74302;40.122;18.310;2024-03-06T06:05:07;8.10;;;4.75;;
84172;SDS011;74302;40.122;18.310;2024-03-06T06:06:52;7.53;;;4.78;;
84172;SDS011;74302;40.122;18.310;2024-03-06T06:08:36;9.90;;;3.10;;
84172;SDS011;74302;40.122;18.310;2024-03-06T06:10:20;9.95;;;5.60;;
84172;SDS011;74302;40.122;18.310;2024-03-06T06:13:48;8.85;;;4.32;;
84172;SDS011;74302;40.122;18.310;2024-03-06T06:15:31;8.27;;;4.57;;
84172;SDS011;74302;40.122;18.310;2024-03-06T06:17:16;8.45;;;3.97;;
84172;SDS011;74302;40.122;18.310;2024-03-06T06:19:00;9.95;;;5.13;;
84172;SDS011;74302;40.122;18.310;2024-03-06T06:20:44;15.95;;;4.80;;
84172;SDS011;74302;40.122;18.310;2024-03-06T06:22:28;10.70;;;6.45;;
84172;SDS011;74302;40.122;18.310;2024-03-06T06:24:12;5.38;;;4.25;;
84172;SDS011;74302;40.122;18.310;2024-03-06T06:25:56;9.13;;;5.68;;
84172;SDS011;74302;40.122;18.310;2024-03-06T06:27:39;7.28;;;4.45;;
84172;SDS011;74302;40.122;18.310;2024-03-06T06:29:23;8.38;;;4.82;;
84172;SDS011;74302;40.122;18.310;2024-03-06T06:31:08;8.93;;;4.68;;
84172;SDS011;74302;40.122;18.310;2024-03-06T06:32:52;9.02;;;4.60;;
84172;SDS011;74302;40.122;18.310;2024-03-06T06:34:36;11.38;;;4.57;;
84172;SDS011;74302;40.122;18.310;2024-03-06T06:36:19;7.03;;;3.33;;
84172;SDS011;74302;40.122;18.310;2024-03-06T06:38:04;10.43;;;4.85;;
84172;SDS011;74302;40.122;18.310;2024-03-06T06:39:47;6.18;;;3.90;;
84172;SDS011;74302;40.122;18.310;2024-03-06T06:43:15;6.25;;;3.42;;
84172;SDS011;74302;40.122;18.310;2024-03-06T06:44:58;5.10;;;3.70;;
84172;SDS011;74302;40.122;18.310;2024-03-06T06:46:43;8.95;;;3.78;;
84172;SDS011;74302;40.122;18.310;2024-03-06T06:48:28;7.75;;;4.43;;
84172;SDS011;74302;40.122;18.310;2024-03-06T06:50:11;5.35;;;2.67;;
84172;SDS011;74302;40.122;18.310;2024-03-06T06:51:55;4.68;;;2.63;;
84172;SDS011;74302;40.122;18.310;2024-03-06T06:53:40;7.28;;;4.78;;
84172;SDS011;74302;40.122;18.310;2024-03-06T06:55:25;13.70;;;4.05;;
84172;SDS011;74302;40.122;18.310;2024-03-06T06:57:08;4.88;;;2.92;;
84172;SDS011;74302;40.122;18.310;2024-03-06T07:00:35;4.57;;;2.78;;
84172;SDS011;74302;40.122;18.310;2024-03-06T07:02:19;5.18;;;3.15;;
84172;SDS011;74302;40.122;18.310;2024-03-06T07:04:04;4.38;;;2.38;;
84172;SDS011;74302;40.122;18.310;2024-03-06T07:05:48;4.90;;;3.10;;
84172;SDS011;74302;40.122;18.310;2024-03-06T07:07:31;4.90;;;3.40;;
84172;SDS011;74302;40.122;18.310;2024-03-06T07:10:59;9.82;;;3.17;;
84172;SDS011;74302;40.122;18.310;2024-03-06T07:12:43;5.88;;;3.58;;
84172;SDS011;74302;40.122;18.310;2024-03-06T07:14:27;6.55;;;3.05;;
84172;SDS011;74302;40.122;18.310;2024-03-06T07:16:11;4.63;;;2.55;;
84172;SDS011;74302;40.122;18.310;2024-03-06T07:17:56;6.30;;;2.75;;
84172;SDS011;74302;40.122;18.310;2024-03-06T07:19:42;5.75;;;2.95;;
84172;SDS011;74302;40.122;18.310;2024-03-06T07:21:26;5.55;;;2.80;;
84172;SDS011;74302;40.122;18.310;2024-03-06T07:23:10;8.43;;;2.75;;
84172;SDS011;74302;40.122;18.310;2024-03-06T07:24:53;5.63;;;2.40;;
84172;SDS011;74302;40.122;18.310;2024-03-06T07:26:38;3.88;;;2.20;;
84172;SDS011;74302;40.122;18.310;2024-03-06T07:28:22;5.28;;;2.67;;
84172;SDS011;74302;40.122;18.310;2024-03-06T07:30:08;4.97;;;2.90;;
84172;SDS011;74302;40.122;18.310;2024-03-06T07:31:54;5.90;;;3.13;;
84172;SDS011;74302;40.122;18.310;2024-03-06T07:33:38;5.03;;;3.03;;
84172;SDS011;74302;40.122;18.310;2024-03-06T07:35:23;6.07;;;3.30;;
84172;SDS011;74302;40.122;18.310;2024-03-06T07:37:07;6.20;;;2.85;;
84172;SDS011;74302;40.122;18.310;2024-03-06T07:38:50;4.35;;;2.60;;
84172;SDS011;74302;40.122;18.310;2024-03-06T07:40:34;10.38;;;2.50;;
84172;SDS011;74302;40.122;18.310;2024-03-06T07:42:18;6.22;;;2.95;;
84172;SDS011;74302;40.122;18.310;2024-03-06T07:44:01;4.65;;;2.45;;
84172;SDS011;74302;40.122;18.310;2024-03-06T07:45:46;5.68;;;2.92;;
84172;SDS011;74302;40.122;18.310;2024-03-06T07:47:31;4.95;;;2.83;;
84172;SDS011;74302;40.122;18.310;2024-03-06T07:49:15;12.50;;;2.58;;
84172;SDS011;74302;40.122;18.310;2024-03-06T07:51:00;4.03;;;2.20;;
84172;SDS011;74302;40.122;18.310;2024-03-06T07:52:44;5.20;;;3.17;;
84172;SDS011;74302;40.122;18.310;2024-03-06T07:54:29;8.52;;;2.72;;
84172;SDS011;74302;40.122;18.310;2024-03-06T07:56:12;4.13;;;2.40;;
84172;SDS011;74302;40.122;18.310;2024-03-06T07:57:56;5.03;;;2.22;;
84172;SDS011;74302;40.122;18.310;2024-03-06T07:59:39;3.47;;;1.80;;
84172;SDS011;74302;40.122;18.310;2024-03-06T08:01:23;8.82;;;3.20;;
84172;SDS011;74302;40.122;18.310;2024-03-06T08:03:07;4.88;;;2.70;;
84172;SDS011;74302;40.122;18.310;2024-03-06T08:04:53;2.70;;;1.63;;
84172;SDS011;74302;40.122;18.310;2024-03-06T08:06:37;7.10;;;2.08;;
84172;SDS011;74302;40.122;18.310;2024-03-06T08:08:21;5.30;;;1.80;;
84172;SDS011;74302;40.122;18.310;2024-03-06T08:10:06;7.03;;;2.38;;
84172;SDS011;74302;40.122;18.310;2024-03-06T08:11:51;2.83;;;1.55;;
84172;SDS011;74302;40.122;18.310;2024-03-06T08:13:36;3.47;;;1.65;;
84172;SDS011;74302;40.122;18.310;2024-03-06T08:15:21;19.48;;;1.63;;
84172;SDS011;74302;40.122;18.310;2024-03-06T08:17:04;3.92;;;2.30;;
84172;SDS011;74302;40.122;18.310;2024-03-06T08:18:49;3.45;;;2.33;;
84172;SDS011;74302;40.122;18.310;2024-03-06T08:20:33;3.08;;;1.45;;
84172;SDS011;74302;40.122;18.310;2024-03-06T08:22:17;2.05;;;1.17;;
84172;SDS011;74302;40.122;18.310;2024-03-06T08:24:02;3.65;;;1.58;;
84172;SDS011;74302;40.122;18.310;2024-03-06T08:25:45;3.85;;;1.80;;
84172;SDS011;74302;40.122;18.310;2024-03-06T08:27:29;3.33;;;1.48;;
84172;SDS011;74302;40.122;18.310;2024-03-06T08:29:12;4.70;;;2.45;;
84172;SDS011;74302;40.122;18.310;2024-03-06T08:32:39;13.73;;;2.72;;
84172;SDS011;74302;40.122;18.310;2024-03-06T08:34:26;1.85;;;1.15;;
84172;SDS011;74302;40.122;18.310;2024-03-06T08:36:10;14.43;;;1.83;;
84172;SDS011;74302;40.122;18.310;2024-03-06T08:37:57;4.82;;;2.55;;
84172;SDS011;74302;40.122;18.310;2024-03-06T08:39:41;6.47;;;1.70;;
84172;SDS011;74302;40.122;18.310;2024-03-06T08:41:24;12.03;;;1.87;;
84172;SDS011;74302;40.122;18.310;2024-03-06T08:44:51;2.97;;;1.90;;
84172;SDS011;74302;40.122;18.310;2024-03-06T08:48:20;3.97;;;1.70;;
84172;SDS011;74302;40.122;18.310;2024-03-06T08:50:04;2.03;;;1.40;;
84172;SDS011;74302;40.122;18.310;2024-03-06T08:51:50;5.38;;;2.53;;
84172;SDS011;74302;40.122;18.310;2024-03-06T08:57:02;5.30;;;1.65;;
84172;SDS011;74302;40.122;18.310;2024-03-06T08:58:46;6.50;;;2.67;;
84172;SDS011;74302;40.122;18.310;2024-03-06T09:02:14;3.67;;;2.03;;
84172;SDS011;74302;40.122;18.310;2024-03-06T09:03:59;3.83;;;1.40;;
84172;SDS011;74302;40.122;18.310;2024-03-06T09:05:44;3.38;;;2.25;;
84172;SDS011;74302;40.122;18.310;2024-03-06T09:07:27;3.05;;;1.80;;
84172;SDS011;74302;40.122;18.310;2024-03-06T09:09:13;5.15;;;2.00;;
84172;SDS011;74302;40.122;18.310;2024-03-06T09:10:57;8.73;;;1.65;;
84172;SDS011;74302;40.122;18.310;2024-03-06T09:12:42;2.00;;;1.58;;
84172;SDS011;74302;40.122;18.310;2024-03-06T09:14:25;4.38;;;1.95;;
84172;SDS011;74302;40.122;18.310;2024-03-06T09:17:53;2.58;;;2.08;;
84172;SDS011;74302;40.122;18.310;2024-03-06T09:19:37;4.82;;;2.00;;
84172;SDS011;74302;40.122;18.310;2024-03-06T09:21:22;3.35;;;2.03;;
84172;SDS011;74302;40.122;18.310;2024-03-06T09:24:50;3.03;;;2.20;;
84172;SDS011;74302;40.122;18.310;2024-03-06T09:26:34;2.92;;;1.23;;
84172;SDS011;74302;40.122;18.310;2024-03-06T09:28:19;2.15;;;1.50;;
84172;SDS011;74302;40.122;18.310;2024-03-06T09:30:02;3.53;;;1.90;;
84172;SDS011;74302;40.122;18.310;2024-03-06T09:31:47;4.22;;;1.95;;
84172;SDS011;74302;40.122;18.310;2024-03-06T09:33:32;2.95;;;1.88;;
84172;SDS011;74302;40.122;18.310;2024-03-06T09:35:16;3.03;;;1.33;;
84172;SDS011;74302;40.122;18.310;2024-03-06T09:36:59;4.88;;;2.58;;
84172;SDS011;74302;40.122;18.310;2024-03-06T09:38:44;2.10;;;1.30;;
84172;SDS011;74302;40.122;18.310;2024-03-06T09:40:30;3.50;;;1.55;;
84172;SDS011;74302;40.122;18.310;2024-03-06T09:42:13;9.75;;;2.05;;
84172;SDS011;74302;40.122;18.310;2024-03-06T09:43:59;2.10;;;1.63;;
84172;SDS011;74302;40.122;18.310;2024-03-06T09:47:28;2.30;;;1.42;;
84172;SDS011;74302;40.122;18.310;2024-03-06T09:49:16;4.28;;;1.90;;
84172;SDS011;74302;40.122;18.310;2024-03-06T09:51:02;2.33;;;1.40;;
84172;SDS011;74302;40.122;18.310;2024-03-06T09:52:47;16.17;;;1.90;;
84172;SDS011;74302;40.122;18.310;2024-03-06T09:54:34;6.47;;;1.98;;
84172;SDS011;74302;40.122;18.310;2024-03-06T09:56:18;2.53;;;1.17;;
84172;SDS011;74302;40.122;18.310;2024-03-06T09:58:03;2.25;;;1.85;;
84172;SDS011;74302;40.122;18.310;2024-03-06T09:59:47;1.70;;;1.13;;
84172;SDS011;74302;40.122;18.310;2024-03-06T10:03:14;4.20;;;2.00;;
84172;SDS011;74302;40.122;18.310;2024-03-06T10:06:42;2.63;;;1.30;;
84172;SDS011;74302;40.122;18.310;2024-03-06T10:08:27;1.10;;;1.00;;
84172;SDS011;74302;40.122;18.310;2024-03-06T10:11:57;2.45;;;1.35;;
84172;SDS011;74302;40.122;18.310;2024-03-06T10:13:42;1.77;;;1.23;;
84172;SDS011;74302;40.122;18.310;2024-03-06T10:15:26;3.20;;;1.40;;
84172;SDS011;74302;40.122;18.310;2024-03-06T10:17:11;2.20;;;0.95;;
84172;SDS011;74302;40.122;18.310;2024-03-06T10:19:14;2.85;;;1.48;;
84172;SDS011;74302;40.122;18.310;2024-03-06T10:21:00;3.05;;;1.30;;
84172;SDS011;74302;40.122;18.310;2024-03-06T10:22:43;1.20;;;1.10;;
84172;SDS011;74302;40.122;18.310;2024-03-06T10:24:28;1.58;;;1.25;;
84172;SDS011;74302;40.122;18.310;2024-03-06T10:26:13;2.38;;;1.20;;
84172;SDS011;74302;40.122;18.310;2024-03-06T10:28:05;5.45;;;2.08;;
84172;SDS011;74302;40.122;18.310;2024-03-06T10:30:00;1.13;;;0.77;;
84172;SDS011;74302;40.122;18.310;2024-03-06T10:31:49;2.05;;;1.05;;
84172;SDS011;74302;40.122;18.310;2024-03-06T10:33:34;1.33;;;1.15;;
84172;SDS011;74302;40.122;18.310;2024-03-06T10:35:20;3.28;;;1.17;;
84172;SDS011;74302;40.122;18.310;2024-03-06T10:37:03;1.57;;;1.00;;
84172;SDS011;74302;40.122;18.310;2024-03-06T10:38:47;1.50;;;1.30;;
84172;SDS011;74302;40.122;18.310;2024-03-06T10:40:35;1.30;;;1.05;;
84172;SDS011;74302;40.122;18.310;2024-03-06T10:42:19;4.53;;;2.08;;
84172;SDS011;74302;40.122;18.310;2024-03-06T10:44:07;1.70;;;1.35;;
84172;SDS011;74302;40.122;18.310;2024-03-06T10:46:00;2.40;;;1.13;;
84172;SDS011;74302;40.122;18.310;2024-03-06T10:47:46;4.10;;;1.88;;
84172;SDS011;74302;40.122;18.310;2024-03-06T10:49:31;2.50;;;1.80;;
84172;SDS011;74302;40.122;18.310;2024-03-06T10:51:16;2.67;;;1.60;;
84172;SDS011;74302;40.122;18.310;2024-03-06T10:53:01;2.00;;;1.35;;
84172;SDS011;74302;40.122;18.310;2024-03-06T10:54:46;1.67;;;1.35;;
84172;SDS011;74302;40.122;18.310;2024-03-06T10:56:32;2.50;;;1.27;;
84172;SDS011;74302;40.122;18.310;2024-03-06T10:58:15;3.25;;;1.27;;
84172;SDS011;74302;40.122;18.310;2024-03-06T11:00:03;8.95;;;1.52;;
84172;SDS011;74302;40.122;18.310;2024-03-06T11:01:48;1.38;;;0.95;;
84172;SDS011;74302;40.122;18.310;2024-03-06T11:03:33;3.05;;;1.35;;
84172;SDS011;74302;40.122;18.310;2024-03-06T11:05:18;3.63;;;1.65;;
84172;SDS011;74302;40.122;18.310;2024-03-06T11:07:01;1.73;;;1.35;;
84172;SDS011;74302;40.122;18.310;2024-03-06T11:08:46;2.55;;;1.10;;
84172;SDS011;74302;40.122;18.310;2024-03-06T11:14:18;1.85;;;0.88;;
84172;SDS011;74302;40.122;18.310;2024-03-06T11:16:06;0.77;;;0.73;;
84172;SDS011;74302;40.122;18.310;2024-03-06T11:17:50;0.93;;;0.73;;